Time;durP1;ratioP1;P1;durP2;ratioP2;P2;SDS_P1;SDS_P2;PMS_P1;PMS_P2;Temp;Humidity;BMP_temperature;BMP_pressure;BME280_temperature;BME280_humidity;BME280_pressure;Samples;Min_cycle;Max_cycle;Signal;HPM_P1;HPM_P2
2023/12/20 00:01:19;;;;;;;2.80;1.57;;;;;;;7.11;67.34;100890.78;5023039;27;103139;-50
2023/12/20 00:03:44;;;;;;;2.60;1.70;;;;;;;7.04;67.35;100886.47;5040820;27;98949;-49
2023/12/20 00:06:10;;;;;;;6.70;1.60;;;;;;;7.02;67.38;100888.97;5040831;27;100065;-50
2023/12/20 00:08:35;;;;;;;6.20;1.53;;;;;;;6.97;67.44;100887.66;5041481;27;97906;-50
2023/12/20 00:11:01;;;;;;;4.30;1.40;;;;;;;6.98;67.46;100893.94;5039414;27;97848;-49
2023/12/20 00:13:26;;;;;;;1.97;1.10;;;;;;;6.98;67.32;100886.41;5040255;27;97221;-50
2023/12/20 00:15:51;;;;;;;6.40;1.50;;;;;;;6.97;67.35;100884.16;5040399;27;103401;-50
2023/12/20 00:18:17;;;;;;;1.63;1.30;;;;;;;6.96;67.42;100882.66;5040207;27;101529;-50
2023/12/20 00:20:42;;;;;;;6.37;1.40;;;;;;;6.94;67.35;100883.13;5041603;27;97244;-50
2023/12/20 00:23:07;;;;;;;2.13;1.23;;;;;;;6.93;67.41;100881.63;5038366;27;97225;-50
2023/12/20 00:25:34;;;;;;;6.73;1.70;;;;;;;6.91;67.35;100878.59;5040448;27;96938;-50
2023/12/20 00:27:59;;;;;;;3.00;1.40;;;;;;;6.90;67.35;100882.59;5040163;27;97283;-49
2023/12/20 00:30:25;;;;;;;3.40;1.20;;;;;;;6.86;67.45;100875.78;5040391;27;97173;-50
2023/12/20 00:32:50;;;;;;;3.37;1.20;;;;;;;6.85;67.33;100874.28;5039070;27;97090;-50
2023/12/20 00:35:16;;;;;;;6.73;1.40;;;;;;;6.82;67.40;100878.75;5040172;27;96941;-50
2023/12/20 00:37:42;;;;;;;4.80;1.40;;;;;;;6.80;67.58;100889.50;5040369;27;96679;-50
2023/12/20 00:40:08;;;;;;;4.57;1.40;;;;;;;6.79;67.26;100887.97;5038468;27;97458;-49
2023/12/20 00:42:35;;;;;;;6.40;1.23;;;;;;;6.77;67.33;100890.44;5041399;27;99384;-50
2023/12/20 00:45:01;;;;;;;2.77;1.03;;;;;;;6.75;67.27;100881.16;5038276;27;97292;-50
2023/12/20 00:47:26;;;;;;;4.30;1.67;;;;;;;6.73;67.20;100878.16;5036924;27;96746;-50
2023/12/20 00:49:51;;;;;;;4.23;1.33;;;;;;;6.71;67.33;100875.91;5039844;27;98657;-50
2023/12/20 00:52:17;;;;;;;9.63;1.37;;;;;;;6.68;67.38;100885.09;5040185;27;97337;-50
2023/12/20 00:54:43;;;;;;;7.00;1.40;;;;;;;6.68;67.26;100887.84;5040999;27;96734;-50
2023/12/20 00:57:09;;;;;;;5.43;1.13;;;;;;;6.65;67.14;100891.59;5037073;27;97099;-50
2023/12/20 00:59:34;;;;;;;1.70;1.20;;;;;;;6.62;67.35;100887.03;5039429;27;96670;-50
2023/12/20 01:01:59;;;;;;;2.80;1.00;;;;;;;6.59;67.24;100884.47;5041112;27;96755;-49
2023/12/20 01:04:25;;;;;;;5.97;1.70;;;;;;;6.54;67.18;100898.91;5038915;27;96680;-50
2023/12/20 01:06:51;;;;;;;7.80;1.73;;;;;;;6.51;67.29;100886.88;5036780;27;106359;-49
2023/12/20 01:09:18;;;;;;;3.17;1.30;;;;;;;6.50;67.28;100887.38;5038611;27;97113;-49
2023/12/20 01:11:43;;;;;;;4.63;1.47;;;;;;;6.48;67.25;100890.59;5039902;27;97231;-49
2023/12/20 01:14:09;;;;;;;9.53;1.10;;;;;;;6.48;67.25;100892.59;5038447;27;98028;-50
2023/12/20 01:16:34;;;;;;;4.67;1.60;;;;;;;6.44;67.26;100884.53;5038380;27;97616;-50
2023/12/20 01:18:59;;;;;;;7.70;1.50;;;;;;;6.39;67.20;100884.50;5039565;27;97098;-50
2023/12/20 01:21:25;;;;;;;3.30;1.33;;;;;;;6.37;67.37;100886.97;5037064;27;101664;-49
2023/12/20 01:23:50;;;;;;;5.90;2.00;;;;;;;6.32;67.30;100891.16;5039171;27;97265;-50
2023/12/20 01:26:16;;;;;;;2.97;1.47;;;;;;;6.31;67.38;100887.66;5038095;27;96907;-49
2023/12/20 01:28:42;;;;;;;4.90;1.40;;;;;;;6.29;67.49;100883.88;5038977;27;98017;-50
2023/12/20 01:31:07;;;;;;;2.57;1.17;;;;;;;6.25;67.29;100877.81;5039246;27;98320;-50
2023/12/20 01:33:32;;;;;;;3.70;1.53;;;;;;;6.23;67.50;100883.81;5040612;27;96901;-50
2023/12/20 01:35:58;;;;;;;4.70;1.17;;;;;;;6.19;67.50;100885.25;5040101;27;97377;-49
2023/12/20 01:38:23;;;;;;;2.33;1.10;;;;;;;6.17;67.39;100883.00;5038331;27;98147;-49
2023/12/20 01:40:48;;;;;;;2.53;1.43;;;;;;;6.16;67.42;100880.69;5037554;27;97005;-50
2023/12/20 01:43:14;;;;;;;7.50;1.10;;;;;;;6.14;67.33;100875.69;5039638;27;98048;-50
2023/12/20 01:45:39;;;;;;;2.93;1.20;;;;;;;6.10;67.48;100888.88;5040582;27;97282;-50
2023/12/20 01:48:06;;;;;;;5.27;1.40;;;;;;;6.11;67.62;100895.88;5039003;27;97539;-50
2023/12/20 01:50:34;;;;;;;3.10;1.17;;;;;;;6.10;67.50;100896.34;5038268;27;97942;-50
2023/12/20 01:53:01;;;;;;;5.33;1.70;;;;;;;6.10;67.54;100894.38;5037805;27;99047;-50
2023/12/20 01:55:29;;;;;;;5.77;1.40;;;;;;;6.12;67.38;100896.63;5038280;27;97200;-50
2023/12/20 01:57:56;;;;;;;6.20;1.40;;;;;;;6.09;67.39;100892.84;5037787;27;97640;-49
2023/12/20 02:00:26;;;;;;;3.50;1.07;;;;;;;6.08;67.48;100890.59;5037260;27;97329;-49
2023/12/20 02:02:53;;;;;;;4.57;1.53;;;;;;;6.07;67.33;100881.59;5038811;27;97197;-49
2023/12/20 02:05:18;;;;;;;5.33;1.03;;;;;;;6.04;67.46;100879.81;5037904;27;97075;-50
2023/12/20 02:07:44;;;;;;;2.20;1.20;;;;;;;6.04;67.49;100873.56;5039665;27;97742;-50
2023/12/20 02:10:09;;;;;;;5.13;1.40;;;;;;;6.02;67.53;100870.53;5037157;27;97209;-50
2023/12/20 02:12:35;;;;;;;7.80;1.50;;;;;;;6.00;67.40;100865.50;5040803;27;97137;-50
2023/12/20 02:15:01;;;;;;;3.50;1.63;;;;;;;5.98;67.44;100861.75;5016796;27;97040;-49
2023/12/20 02:17:27;;;;;;;3.73;1.47;;;;;;;5.94;67.46;100852.94;5038548;27;97396;-50
2023/12/20 02:19:52;;;;;;;5.00;1.73;;;;;;;5.93;67.49;100851.44;5039473;27;97882;-50
2023/12/20 02:22:18;;;;;;;3.60;1.50;;;;;;;5.91;67.51;100853.91;5037827;27;107873;-50
2023/12/20 02:24:43;;;;;;;4.73;1.67;;;;;;;5.85;67.52;100862.06;5040074;27;97306;-50
2023/12/20 02:27:09;;;;;;;2.13;1.83;;;;;;;5.83;67.50;100855.53;5038484;27;97006;-50
2023/12/20 02:29:35;;;;;;;4.10;1.30;;;;;;;5.85;67.56;100853.81;5038717;27;96944;-50
2023/12/20 02:32:00;;;;;;;4.00;1.60;;;;;;;5.85;67.57;100853.09;5038555;27;97170;-50
2023/12/20 02:34:26;;;;;;;4.40;2.60;;;;;;;5.85;67.53;100845.59;5037740;27;97198;-49
2023/12/20 02:36:51;;;;;;;11.03;2.10;;;;;;;5.82;67.47;100843.06;5037108;27;100648;-50
2023/12/20 02:39:16;;;;;;;7.53;2.30;;;;;;;5.80;67.56;100854.53;5035875;27;97078;-50
2023/12/20 02:41:42;;;;;;;11.17;2.43;;;;;;;5.78;67.55;100848.75;5038163;27;97343;-50
2023/12/20 02:44:08;;;;;;;8.00;1.70;;;;;;;5.76;67.62;100847.72;5038042;27;96764;-50
2023/12/20 02:46:33;;;;;;;4.50;1.60;;;;;;;5.73;67.63;100840.44;5035801;27;97440;-50
2023/12/20 02:48:58;;;;;;;7.47;2.70;;;;;;;5.74;67.67;100839.94;5037651;27;96984;-50
2023/12/20 02:51:23;;;;;;;3.23;1.70;;;;;;;5.71;67.59;100837.41;5034613;27;96904;-50
2023/12/20 02:53:49;;;;;;;4.70;1.50;;;;;;;5.69;67.70;100839.88;5038635;27;97097;-50
2023/12/20 02:56:14;;;;;;;7.80;2.13;;;;;;;5.69;67.71;100834.38;5035687;27;102250;-50
2023/12/20 02:58:40;;;;;;;1.93;1.10;;;;;;;5.66;67.67;100821.59;5037181;27;97905;-49
2023/12/20 03:01:05;;;;;;;4.83;1.33;;;;;;;5.63;67.56;100817.09;5034442;27;97658;-50
2023/12/20 03:03:31;;;;;;;6.30;1.40;;;;;;;5.61;67.79;100814.06;5037382;27;97088;-49
2023/12/20 03:05:56;;;;;;;8.93;1.50;;;;;;;5.60;67.74;100818.78;5036364;27;97915;-50
2023/12/20 03:08:22;;;;;;;2.23;0.90;;;;;;;5.60;67.86;100820.78;5037321;27;110184;-50
2023/12/20 03:10:47;;;;;;;7.67;1.63;;;;;;;5.59;67.83;100814.53;5040259;27;105207;-50
2023/12/20 03:13:12;;;;;;;9.27;1.13;;;;;;;5.59;67.88;100811.78;5037675;27;97155;-50
2023/12/20 03:15:38;;;;;;;7.53;1.57;;;;;;;5.58;67.74;100807.53;5037505;27;102025;-50
2023/12/20 03:18:03;;;;;;;6.10;1.00;;;;;;;5.55;67.74;100797.50;5038835;27;97233;-50
2023/12/20 03:20:31;;;;;;;5.60;1.33;;;;;;;5.56;67.76;100793.53;5037599;27;96806;-50
2023/12/20 03:22:56;;;;;;;3.77;0.90;;;;;;;5.55;67.80;100797.50;5038622;27;96980;-50
2023/12/20 03:25:21;;;;;;;10.93;1.67;;;;;;;5.55;67.64;100795.53;5040200;27;97139;-50
2023/12/20 03:27:46;;;;;;;2.57;1.10;;;;;;;5.56;67.86;100791.53;5040597;27;109052;-49
2023/12/20 03:30:12;;;;;;;4.17;1.23;;;;;;;5.58;67.90;100788.34;5039798;27;97247;-49
2023/12/20 03:32:38;;;;;;;2.07;0.90;;;;;;;5.58;67.85;100785.59;5038110;27;97251;-51
2023/12/20 03:35:04;;;;;;;5.80;1.57;;;;;;;5.59;67.88;100786.34;5040694;27;97205;-50
2023/12/20 03:37:29;;;;;;;5.00;1.40;;;;;;;5.61;67.87;100792.13;5037838;27;97660;-49
2023/12/20 03:39:54;;;;;;;1.87;1.10;;;;;;;5.61;67.74;100775.66;5006665;27;96927;-50
2023/12/20 03:42:20;;;;;;;5.73;1.13;;;;;;;5.57;67.77;100782.09;5039465;27;104308;-50
2023/12/20 03:44:45;;;;;;;5.43;1.20;;;;;;;5.56;67.81;100786.03;5038336;27;112339;-50
2023/12/20 03:47:10;;;;;;;5.50;1.77;;;;;;;5.54;67.73;100785.78;5039132;27;96977;-49
2023/12/20 03:49:37;;;;;;;5.57;1.40;;;;;;;5.55;67.90;100784.56;5037965;27;97430;-49
2023/12/20 03:52:03;;;;;;;6.73;1.33;;;;;;;5.56;67.85;100785.31;5040673;27;97415;-49
2023/12/20 03:54:28;;;;;;;2.70;1.10;;;;;;;5.56;67.95;100777.81;5038154;27;98367;-50
2023/12/20 03:56:53;;;;;;;13.97;2.07;;;;;;;5.57;67.92;100779.34;5037997;27;111881;-49
2023/12/20 03:59:19;;;;;;;3.40;1.50;;;;;;;5.57;67.95;100771.09;5038691;27;105270;-50
2023/12/20 04:01:44;;;;;;;8.10;1.80;;;;;;;5.60;68.00;100771.38;5037284;27;97282;-49
2023/12/20 04:04:10;;;;;;;5.03;1.40;;;;;;;5.62;67.90;100771.66;5039139;27;98244;-49
2023/12/20 04:06:36;;;;;;;2.77;1.47;;;;;;;5.62;67.76;100771.66;5039093;27;97244;-50
2023/12/20 04:09:01;;;;;;;2.97;2.07;;;;;;;5.62;67.89;100766.16;5035029;27;97060;-50
2023/12/20 04:11:26;;;;;;;6.43;1.43;;;;;;;5.60;67.97;100765.88;5038011;27;97316;-49
2023/12/20 04:13:52;;;;;;;5.30;1.60;;;;;;;5.59;67.91;100772.63;5039102;27;97221;-49
2023/12/20 04:16:17;;;;;;;6.10;1.60;;;;;;;5.60;68.04;100763.16;5040056;27;108726;-49
2023/12/20 04:18:42;;;;;;;4.43;1.90;;;;;;;5.62;67.94;100768.91;5036956;27;97407;-50
2023/12/20 04:21:07;;;;;;;9.33;1.80;;;;;;;5.63;68.01;100773.19;5039994;27;100175;-50
2023/12/20 04:23:33;;;;;;;6.47;1.60;;;;;;;5.65;68.11;100762.47;5035810;27;111462;-49
2023/12/20 04:25:58;;;;;;;5.67;2.03;;;;;;;5.63;67.97;100754.69;5039367;27;100262;-49
2023/12/20 04:28:23;;;;;;;10.40;1.87;;;;;;;5.64;68.01;100749.97;5037347;27;99951;-50
2023/12/20 04:30:49;;;;;;;4.87;1.60;;;;;;;5.64;68.01;100748.00;5037186;27;97357;-50
2023/12/20 04:33:14;;;;;;;3.30;1.93;;;;;;;5.65;68.06;100740.50;5039413;27;97228;-49
2023/12/20 04:35:40;;;;;;;5.70;1.80;;;;;;;5.66;68.11;100742.00;5038385;27;97237;-50
2023/12/20 04:38:06;;;;;;;5.90;2.20;;;;;;;5.69;68.07;100747.31;5038372;27;97095;-50
2023/12/20 04:40:32;;;;;;;10.13;2.13;;;;;;;5.72;67.92;100745.59;5039707;27;96802;-49
2023/12/20 04:42:57;;;;;;;4.27;1.87;;;;;;;5.73;67.88;100741.59;5039558;27;97263;-50
2023/12/20 04:45:24;;;;;;;7.13;1.80;;;;;;;5.71;67.87;100731.13;5040272;27;97406;-50
2023/12/20 04:47:50;;;;;;;5.83;1.77;;;;;;;5.72;67.99;100734.63;5038663;27;96787;-49
2023/12/20 04:50:15;;;;;;;6.90;2.50;;;;;;;5.73;68.03;100749.84;5039867;27;97382;-49
2023/12/20 04:52:41;;;;;;;6.73;2.20;;;;;;;5.73;67.93;100738.88;5039513;27;97159;-49
2023/12/20 04:55:06;;;;;;;7.10;1.90;;;;;;;5.74;67.97;100738.38;5034444;27;98442;-50
2023/12/20 04:57:32;;;;;;;9.73;2.30;;;;;;;5.76;68.14;100744.13;5038473;27;97229;-49
2023/12/20 04:59:57;;;;;;;6.33;1.90;;;;;;;5.79;68.08;100742.41;5040235;27;97160;-49
2023/12/20 05:02:23;;;;;;;7.40;2.30;;;;;;;5.79;68.12;100742.41;5040504;27;110721;-49
2023/12/20 05:04:48;;;;;;;8.53;2.07;;;;;;;5.79;68.18;100734.94;5040542;27;97180;-49
2023/12/20 05:07:13;;;;;;;11.73;2.57;;;;;;;5.80;68.07;100732.97;5036000;27;97712;-49
2023/12/20 05:09:39;;;;;;;9.77;2.47;;;;;;;5.80;68.15;100739.22;5037242;27;97767;-49
2023/12/20 05:12:05;;;;;;;4.17;1.80;;;;;;;5.83;67.97;100740.22;5036840;27;98029;-50
2023/12/20 05:14:30;;;;;;;5.83;1.70;;;;;;;5.82;68.08;100738.72;5038464;27;97088;-50
2023/12/20 05:16:56;;;;;;;8.57;2.07;;;;;;;5.86;68.09;100739.28;5038294;27;97045;-49
2023/12/20 05:19:21;;;;;;;17.40;2.20;;;;;;;5.87;67.99;100729.81;5040562;27;97752;-49
2023/12/20 05:21:47;;;;;;;7.37;1.90;;;;;;;5.86;67.91;100725.53;5037620;27;97693;-49
2023/12/20 05:24:12;;;;;;;4.73;1.97;;;;;;;5.86;68.12;100723.56;5040066;27;97092;-50
2023/12/20 05:26:37;;;;;;;6.10;2.00;;;;;;;5.84;68.00;100728.03;5040228;27;96787;-49
2023/12/20 05:29:03;;;;;;;6.07;1.50;;;;;;;5.86;68.08;100722.78;5021567;27;97294;-49
2023/12/20 05:31:28;;;;;;;8.87;1.60;;;;;;;5.85;68.03;100721.31;5038895;27;102463;-55
2023/12/20 05:33:53;;;;;;;8.10;1.90;;;;;;;5.87;68.05;100732.56;5039409;27;97253;-49
2023/12/20 05:36:19;;;;;;;8.30;2.20;;;;;;;5.89;68.00;100724.59;5039801;27;97045;-50
2023/12/20 05:38:45;;;;;;;9.40;1.80;;;;;;;5.89;67.99;100724.59;5036583;27;97226;-49
2023/12/20 05:41:10;;;;;;;6.30;1.80;;;;;;;5.92;68.00;100718.88;5038047;27;97010;-49
2023/12/20 05:43:35;;;;;;;9.00;2.03;;;;;;;5.93;67.74;100728.63;5038175;27;97099;-50
2023/12/20 05:46:01;;;;;;;4.73;1.93;;;;;;;5.94;67.91;100729.38;5041435;27;96752;-49
2023/12/20 05:48:27;;;;;;;6.00;2.00;;;;;;;5.92;67.90;100724.38;5038633;27;97283;-49
2023/12/20 05:50:52;;;;;;;14.87;2.23;;;;;;;5.94;67.89;100727.38;5038586;27;97182;-49
2023/12/20 05:53:18;;;;;;;4.37;1.80;;;;;;;5.94;67.88;100735.63;5039155;27;98022;-49
2023/12/20 05:55:43;;;;;;;7.80;2.30;;;;;;;5.95;67.79;100741.88;5021252;27;97270;-49
2023/12/20 05:58:08;;;;;;;4.60;2.07;;;;;;;5.95;68.13;100728.91;5040149;27;104209;-49
2023/12/20 06:00:34;;;;;;;7.73;2.50;;;;;;;5.95;67.82;100730.91;5040298;27;97884;-49
2023/12/20 06:02:59;;;;;;;5.93;2.00;;;;;;;5.92;67.92;100729.09;5039693;27;97051;-49
2023/12/20 06:05:24;;;;;;;7.10;2.40;;;;;;;5.93;67.74;100733.38;5039085;27;96994;-49
2023/12/20 06:07:50;;;;;;;4.33;2.10;;;;;;;5.90;67.81;100726.84;5037713;27;101210;-49
2023/12/20 06:10:16;;;;;;;9.57;2.00;;;;;;;5.90;67.80;100715.09;5038132;27;97730;-50
2023/12/20 06:12:41;;;;;;;7.37;2.57;;;;;;;5.87;67.73;100710.59;5036333;27;97793;-49
2023/12/20 06:15:07;;;;;;;10.77;2.37;;;;;;;5.86;67.86;100703.59;5039197;27;96915;-49
2023/12/20 06:17:34;;;;;;;11.27;2.87;;;;;;;5.89;67.90;100714.34;5040566;27;97954;-49
2023/12/20 06:20:00;;;;;;;7.83;2.10;;;;;;;5.91;67.89;100724.88;5018923;27;99149;-49
2023/12/20 06:22:25;;;;;;;9.10;2.50;;;;;;;5.91;67.73;100717.38;5039134;27;97335;-49
2023/12/20 06:24:51;;;;;;;10.53;2.57;;;;;;;5.91;67.70;100714.63;5037619;27;96769;-49
2023/12/20 06:27:16;;;;;;;5.40;1.70;;;;;;;5.90;67.69;100706.88;5038472;27;102238;-49
2023/12/20 06:29:42;;;;;;;7.40;2.30;;;;;;;5.94;67.52;100712.91;5018736;27;97006;-49
2023/12/20 06:32:08;;;;;;;6.70;2.13;;;;;;;5.94;67.54;100710.91;5037598;27;97253;-49
2023/12/20 06:34:33;;;;;;;6.87;1.43;;;;;;;5.93;67.67;100712.16;5039720;27;97501;-49
2023/12/20 06:36:58;;;;;;;7.50;2.20;;;;;;;5.95;67.71;100706.19;5038481;27;97723;-50
2023/12/20 06:39:23;;;;;;;7.43;1.90;;;;;;;5.91;67.53;100713.88;5039795;27;103029;-48
2023/12/20 06:41:49;;;;;;;10.57;2.33;;;;;;;5.86;67.76;100709.06;5036246;27;111213;-49
2023/12/20 06:44:14;;;;;;;12.50;2.50;;;;;;;5.84;67.87;100708.81;5040618;27;96972;-49
2023/12/20 06:46:39;;;;;;;10.13;2.30;;;;;;;5.87;67.88;100702.34;5037249;27;101222;-50
2023/12/20 06:49:05;;;;;;;10.50;2.10;;;;;;;5.90;67.86;100704.13;5042617;27;104855;-49
2023/12/20 06:51:30;;;;;;;10.20;2.83;;;;;;;5.92;67.67;100707.91;5042039;27;97268;-49
2023/12/20 06:53:56;;;;;;;7.93;2.10;;;;;;;5.93;67.65;100709.41;5042142;27;97004;-49
2023/12/20 06:56:21;;;;;;;10.20;2.43;;;;;;;5.93;67.71;100698.44;5041966;27;97319;-49
2023/12/20 06:58:47;;;;;;;8.10;2.13;;;;;;;5.93;67.71;100697.69;5042495;27;105140;-49
2023/12/20 07:01:15;;;;;;;4.73;1.70;;;;;;;5.93;67.68;100692.19;5041126;27;96980;-49
2023/12/20 07:03:41;;;;;;;8.60;2.40;;;;;;;5.93;67.79;100686.69;5040842;27;97399;-49
2023/12/20 07:06:07;;;;;;;9.23;2.20;;;;;;;5.91;67.84;100673.44;5040969;27;97227;-50
2023/12/20 07:08:33;;;;;;;8.13;2.30;;;;;;;5.89;67.74;100670.41;5043117;27;97793;-49
2023/12/20 07:10:58;;;;;;;11.23;2.27;;;;;;;5.93;67.87;100681.19;5040732;27;97181;-50
2023/12/20 07:13:24;;;;;;;12.37;2.10;;;;;;;5.96;67.65;100666.47;5041742;27;97615;-50
2023/12/20 07:15:50;;;;;;;14.10;2.03;;;;;;;5.96;67.60;100669.22;5041631;27;97442;-49
2023/12/20 07:18:15;;;;;;;4.83;1.67;;;;;;;5.96;67.60;100677.47;5041598;27;97146;-49
2023/12/20 07:20:41;;;;;;;14.07;2.67;;;;;;;5.98;67.55;100667.50;5041469;27;97135;-49
2023/12/20 07:23:06;;;;;;;8.33;1.87;;;;;;;5.96;67.48;100678.22;5041430;27;96593;-49
2023/12/20 07:25:32;;;;;;;6.93;1.97;;;;;;;5.94;67.52;100672.47;5042383;27;99112;-50
2023/12/20 07:27:58;;;;;;;7.47;1.90;;;;;;;5.95;67.53;100668.50;5041512;27;97661;-49
2023/12/20 07:30:23;;;;;;;8.67;2.27;;;;;;;5.95;67.60;100659.50;5040805;27;97101;-49
2023/12/20 07:32:49;;;;;;;15.00;3.00;;;;;;;5.94;67.47;100666.97;5040696;27;97202;-49
2023/12/20 07:35:15;;;;;;;5.73;2.40;;;;;;;5.93;67.63;100659.22;5042896;27;97719;-50
2023/12/20 07:37:41;;;;;;;13.43;2.30;;;;;;;5.94;67.59;100660.72;5041409;27;98577;-49
2023/12/20 07:40:06;;;;;;;9.30;2.27;;;;;;;5.96;67.52;100663.75;5040044;27;97328;-49
2023/12/20 07:42:32;;;;;;;12.90;2.07;;;;;;;5.97;67.54;100671.50;5041888;27;97424;-49
2023/12/20 07:44:58;;;;;;;4.77;1.60;;;;;;;5.98;67.55;100670.25;5040378;27;97654;-49
2023/12/20 07:47:25;;;;;;;9.53;2.30;;;;;;;5.99;67.57;100676.50;5040887;27;96894;-49
2023/12/20 07:49:51;;;;;;;6.90;2.13;;;;;;;5.98;67.44;100675.03;5041138;27;98343;-49
2023/12/20 07:52:18;;;;;;;9.53;2.07;;;;;;;5.96;67.45;100670.00;5043680;27;97310;-49
2023/12/20 07:54:43;;;;;;;8.93;2.37;;;;;;;5.99;67.57;100665.53;5040644;27;97112;-50
2023/12/20 07:57:09;;;;;;;6.07;2.20;;;;;;;6.00;67.56;100661.56;5041064;27;97495;-49
2023/12/20 07:59:34;;;;;;;6.47;2.40;;;;;;;6.02;67.51;100661.81;5042952;27;97110;-49
2023/12/20 08:01:59;;;;;;;7.50;2.53;;;;;;;6.02;67.47;100684.53;5041126;27;105979;-50
2023/12/20 08:04:25;;;;;;;13.20;2.40;;;;;;;6.03;67.42;100672.31;5041754;27;97608;-49
2023/12/20 08:06:50;;;;;;;7.07;2.10;;;;;;;6.03;67.52;100660.56;5040789;27;103216;-49
2023/12/20 08:09:15;;;;;;;8.33;2.13;;;;;;;6.05;67.51;100660.84;5041113;27;96772;-49
2023/12/20 08:11:47;;;;;;;10.50;2.17;;;;;;;6.05;67.45;100663.59;5042365;27;97045;-49
2023/12/20 08:14:13;;;;;;;3.43;1.60;;;;;;;6.06;67.50;100648.63;5040812;27;97017;-48
2023/12/20 08:16:39;;;;;;;11.70;1.90;;;;;;;6.07;67.63;100661.09;5041575;27;96754;-49
2023/12/20 08:19:04;;;;;;;12.13;2.50;;;;;;;6.09;67.47;100655.88;5039815;27;97720;-49
2023/12/20 08:21:29;;;;;;;5.47;2.27;;;;;;;6.09;67.49;100648.41;5041417;27;97238;-49
2023/12/20 08:23:55;;;;;;;13.30;2.30;;;;;;;6.09;67.60;100645.66;5040133;27;97523;-49
2023/12/20 08:26:21;;;;;;;5.03;1.70;;;;;;;6.12;67.50;100644.69;5040362;27;97666;-49
2023/12/20 08:28:47;;;;;;;9.30;2.50;;;;;;;6.15;67.40;100646.44;5038703;27;97303;-49
2023/12/20 08:31:16;;;;;;;8.57;2.10;;;;;;;6.15;67.30;100645.72;5038955;27;96690;-49
2023/12/20 08:33:46;;;;;;;5.83;1.70;;;;;;;6.13;67.37;100640.69;5040130;27;97040;-50
2023/12/20 08:36:11;;;;;;;7.47;2.30;;;;;;;6.14;67.46;100635.97;5037117;27;96809;-49
2023/12/20 08:38:37;;;;;;;6.30;2.10;;;;;;;6.15;67.43;100640.22;5039492;27;101613;-49
2023/12/20 08:41:04;;;;;;;9.03;2.60;;;;;;;6.16;67.55;100636.22;5040446;27;100208;-49
2023/12/20 08:43:30;;;;;;;9.87;2.43;;;;;;;6.18;67.43;100637.25;5040697;27;96883;-49
2023/12/20 08:45:55;;;;;;;5.97;1.90;;;;;;;6.20;67.55;100629.28;5039275;27;97459;-49
2023/12/20 08:48:21;;;;;;;10.50;2.10;;;;;;;6.22;67.43;100623.28;5040392;27;101756;-49
2023/12/20 08:50:48;;;;;;;8.37;1.90;;;;;;;6.24;67.43;100618.09;5039996;27;102682;-49
2023/12/20 08:53:15;;;;;;;11.93;2.10;;;;;;;6.27;67.35;100628.09;5038051;27;96960;-50
2023/12/20 08:55:40;;;;;;;7.60;2.20;;;;;;;6.28;67.39;100626.84;5041699;27;98183;-49
2023/12/20 08:58:06;;;;;;;11.00;2.47;;;;;;;6.23;67.25;100611.84;5037680;27;97449;-49
2023/12/20 09:00:32;;;;;;;6.50;1.97;;;;;;;6.22;67.39;100604.06;5041191;27;97065;-49
2023/12/20 09:02:57;;;;;;;7.27;2.10;;;;;;;6.25;67.48;100606.59;5036961;27;105501;-49
2023/12/20 09:05:22;;;;;;;7.97;2.10;;;;;;;6.31;67.42;100606.63;5039724;27;100211;-49
2023/12/20 09:07:48;;;;;;;10.60;2.30;;;;;;;6.33;67.32;100617.88;5039807;27;97228;-49
2023/12/20 09:10:13;;;;;;;5.50;1.90;;;;;;;6.32;67.35;100610.91;5017128;27;102069;-49
2023/12/20 09:12:40;;;;;;;8.77;2.67;;;;;;;6.31;67.41;100601.13;5040503;27;100872;-49
2023/12/20 09:15:06;;;;;;;7.87;2.10;;;;;;;6.31;67.36;100595.66;5039598;27;97549;-50
2023/12/20 09:17:31;;;;;;;10.30;2.03;;;;;;;6.28;67.50;100591.88;5039860;27;97220;-49
2023/12/20 09:19:57;;;;;;;4.97;2.10;;;;;;;6.27;67.50;100590.38;5037690;27;97227;-50
2023/12/20 09:22:23;;;;;;;9.20;2.43;;;;;;;6.31;67.48;100587.41;5040707;27;97290;-49
2023/12/20 09:24:48;;;;;;;6.53;2.30;;;;;;;6.32;67.38;100594.41;5039664;27;98083;-49
2023/12/20 09:27:13;;;;;;;10.70;2.80;;;;;;;6.36;67.49;100588.69;5037289;27;96992;-49
2023/12/20 09:29:39;;;;;;;8.60;2.40;;;;;;;6.37;67.36;100593.72;5040527;27;97758;-49
2023/12/20 09:32:04;;;;;;;5.10;2.20;;;;;;;6.39;67.47;100590.47;5038598;27;97426;-49
2023/12/20 09:34:29;;;;;;;9.70;2.30;;;;;;;6.41;67.33;100575.00;5039178;27;97961;-49
2023/12/20 09:36:55;;;;;;;8.50;1.83;;;;;;;6.42;67.36;100568.25;5039001;27;97513;-50
2023/12/20 09:39:21;;;;;;;10.47;2.53;;;;;;;6.42;67.35;100570.25;5037657;27;97019;-50
2023/12/20 09:41:59;;;;;;;9.17;2.07;;;;;;;6.43;67.19;100569.78;5040642;27;97067;-50
2023/12/20 09:44:25;;;;;;;5.93;2.20;;;;;;;6.42;67.41;100576.50;5037225;27;97234;-50
2023/12/20 09:46:53;;;;;;;7.30;2.40;;;;;;;6.45;67.42;100566.53;5040962;27;97416;-49
2023/12/20 09:49:19;;;;;;;8.07;2.40;;;;;;;6.48;67.34;100580.03;5037974;27;97183;-49
2023/12/20 09:51:46;;;;;;;7.03;2.13;;;;;;;6.49;67.30;100562.31;5039610;27;97683;-49
2023/12/20 09:54:15;;;;;;;8.90;2.07;;;;;;;6.51;67.28;100559.81;5036264;27;97777;-49
2023/12/20 09:56:41;;;;;;;10.67;1.97;;;;;;;6.54;67.16;100563.59;5039266;27;97418;-50
2023/12/20 09:59:06;;;;;;;7.33;2.00;;;;;;;6.57;67.22;100557.84;5038564;27;96909;-49
2023/12/20 10:01:33;;;;;;;10.33;2.47;;;;;;;6.59;67.12;100549.13;5039563;27;97067;-49
2023/12/20 10:04:00;;;;;;;5.97;1.83;;;;;;;6.57;67.02;100546.84;5038648;27;97041;-49
2023/12/20 10:06:25;;;;;;;9.13;1.90;;;;;;;6.56;67.12;100552.84;5039394;27;96661;-50
2023/12/20 10:08:50;;;;;;;12.10;2.47;;;;;;;6.57;67.22;100546.84;5038003;27;100371;-49
2023/12/20 10:11:16;;;;;;;4.43;2.10;;;;;;;6.61;67.16;100552.91;5038770;27;98052;-49
2023/12/20 10:13:42;;;;;;;6.30;1.40;;;;;;;6.66;67.08;100560.44;5038513;27;97869;-49
2023/12/20 10:16:08;;;;;;;7.97;2.10;;;;;;;6.63;67.08;100544.94;5037989;27;96949;-49
2023/12/20 10:18:33;;;;;;;10.23;2.27;;;;;;;6.62;67.20;100554.41;5042077;27;97140;-49
2023/12/20 10:21:00;;;;;;;6.10;1.90;;;;;;;6.58;67.21;100537.38;5046538;27;97092;-49
2023/12/20 10:23:25;;;;;;;8.77;1.33;;;;;;;6.59;67.21;100541.63;5045474;27;97514;-49
2023/12/20 10:26:00;;;;;;;7.00;2.30;;;;;;;6.61;67.29;100541.19;5047093;27;97465;-49
2023/12/20 10:28:29;;;;;;;6.97;2.00;;;;;;;6.60;67.29;100540.38;5045028;27;96939;-49
2023/12/20 10:30:56;;;;;;;3.77;1.80;;;;;;;6.63;67.26;100538.69;5045088;27;96722;-49
2023/12/20 10:33:26;;;;;;;9.83;2.00;;;;;;;6.63;67.24;100542.19;5043854;27;96990;-48
2023/12/20 10:35:52;;;;;;;8.23;2.00;;;;;;;6.65;67.36;100539.72;5044189;27;97233;-50
2023/12/20 10:38:18;;;;;;;7.70;1.90;;;;;;;6.67;67.44;100537.22;5044532;27;97320;-50
2023/12/20 10:40:45;;;;;;;8.30;2.07;;;;;;;6.72;67.16;100535.75;5044595;27;97050;-50
2023/12/20 10:43:11;;;;;;;5.87;2.10;;;;;;;6.74;67.26;100522.97;5043149;27;97479;-49
2023/12/20 10:45:36;;;;;;;6.70;2.13;;;;;;;6.74;67.19;100522.25;5045670;27;97132;-50
2023/12/20 10:48:02;;;;;;;6.80;1.93;;;;;;;6.76;67.30;100520.50;5044015;27;97274;-49
2023/12/20 10:50:31;;;;;;;10.00;2.43;;;;;;;6.76;67.25;100520.50;5045215;27;97228;-49
2023/12/20 10:52:57;;;;;;;9.63;1.77;;;;;;;6.77;67.25;100515.75;5045029;27;97261;-50
2023/12/20 10:55:23;;;;;;;3.90;1.30;;;;;;;6.80;67.21;100515.53;5045186;27;99038;-49
2023/12/20 10:58:00;;;;;;;5.70;1.80;;;;;;;6.77;67.35;100530.25;5045442;27;97035;-49
2023/12/20 11:00:25;;;;;;;3.43;1.30;;;;;;;6.75;67.35;100518.25;5043198;27;96989;-50
2023/12/20 11:02:52;;;;;;;3.23;1.73;;;;;;;6.76;67.29;100520.50;5044784;27;97417;-49
2023/12/20 11:05:35;;;;;;;6.37;1.50;;;;;;;6.81;67.25;100533.53;5045379;27;97675;-50
2023/12/20 11:08:05;;;;;;;6.73;2.00;;;;;;;6.80;67.38;100537.53;5046400;27;97134;-50
2023/12/20 11:10:40;;;;;;;3.90;1.30;;;;;;;6.78;67.10;100562.00;5045293;27;96940;-50
2023/12/20 11:13:22;;;;;;;10.20;2.30;;;;;;;6.74;67.67;100577.97;5044585;27;97133;-50
2023/12/20 11:15:48;;;;;;;7.43;1.40;;;;;;;6.67;67.57;100583.94;5046388;27;101195;-50
2023/12/20 11:18:14;;;;;;;7.07;2.10;;;;;;;6.57;67.40;100598.34;5043577;27;97066;-50
2023/12/20 11:20:42;;;;;;;4.80;1.27;;;;;;;6.45;67.32;100572.78;5045101;27;97288;-50
2023/12/20 11:23:10;;;;;;;1.83;0.60;;;;;;;6.31;67.15;100546.94;5042539;27;97505;-50
2023/12/20 11:25:58;;;;;;;1.70;0.60;;;;;;;6.17;66.94;100561.59;5045486;27;97290;-50